sensor_id;sensor_type;location;lat;lon;timestamp;temperature;humidity
32728;DHT22;55292;51.844;19.246;2023-03-01T00:01:29;-7.00;99.90
32728;DHT22;55292;51.844;19.246;2023-03-01T00:16:41;-7.10;99.90
32728;DHT22;55292;51.844;19.246;2023-03-01T00:21:45;-6.90;99.90
32728;DHT22;55292;51.844;19.246;2023-03-01T00:31:52;-7.30;99.90
32728;DHT22;55292;51.844;19.246;2023-03-01T01:02:20;-7.60;99.90
32728;DHT22;55292;51.844;19.246;2023-03-01T01:32:38;-7.60;99.90
32728;DHT22;55292;51.844;19.246;2023-03-01T01:42:44;-7.80;99.90
32728;DHT22;55292;51.844;19.246;2023-03-01T01:47:46;-7.90;99.90
32728;DHT22;55292;51.844;19.246;2023-03-01T01:52:51;-8.10;99.90
32728;DHT22;55292;51.844;19.246;2023-03-01T01:57:58;-7.90;99.90
32728;DHT22;55292;51.844;19.246;2023-03-01T02:03:07;-7.90;99.90
32728;DHT22;55292;51.844;19.246;2023-03-01T02:08:13;-7.70;99.90
32728;DHT22;55292;51.844;19.246;2023-03-01T02:18:22;-8.00;99.90
32728;DHT22;55292;51.844;19.246;2023-03-01T02:28:34;-8.00;99.90
32728;DHT22;55292;51.844;19.246;2023-03-01T02:33:39;-8.00;99.90
32728;DHT22;55292;51.844;19.246;2023-03-01T02:48:54;-7.50;99.90
32728;DHT22;55292;51.844;19.246;2023-03-01T02:54:06;-7.50;99.90
32728;DHT22;55292;51.844;19.246;2023-03-01T03:04:16;-7.60;99.90
32728;DHT22;55292;51.844;19.246;2023-03-01T03:09:23;-7.70;99.90
32728;DHT22;55292;51.844;19.246;2023-03-01T03:14:26;-7.60;99.90
32728;DHT22;55292;51.844;19.246;2023-03-01T03:19:29;-7.60;99.90
32728;DHT22;55292;51.844;19.246;2023-03-01T04:05:15;-8.00;99.90
32728;DHT22;55292;51.844;19.246;2023-03-01T04:10:24;-8.00;99.90
32728;DHT22;55292;51.844;19.246;2023-03-01T04:28:39;-5.20;99.90
32728;DHT22;55292;51.844;19.246;2023-03-01T04:35:44;-8.00;99.90
32728;DHT22;55292;51.844;19.246;2023-03-01T04:56:31;-8.10;99.90
32728;DHT22;55292;51.844;19.246;2023-03-01T05:02:13;-8.00;99.90
32728;DHT22;55292;51.844;19.246;2023-03-01T05:08:11;-7.80;99.90
32728;DHT22;55292;51.844;19.246;2023-03-01T05:14:11;-7.90;99.90
32728;DHT22;55292;51.844;19.246;2023-03-01T05:21:13;-7.80;99.90
32728;DHT22;55292;51.844;19.246;2023-03-01T05:26:44;-7.90;99.90
32728;DHT22;55292;51.844;19.246;2023-03-01T05:32:26;-7.60;99.90
32728;DHT22;55292;51.844;19.246;2023-03-01T05:38:17;-7.80;99.90
32728;DHT22;55292;51.844;19.246;2023-03-01T05:51:10;-7.60;99.90
32728;DHT22;55292;51.844;19.246;2023-03-01T06:56:43;-3.70;99.90
32728;DHT22;55292;51.844;19.246;2023-03-01T07:09:42;-3.50;99.90
32728;DHT22;55292;51.844;19.246;2023-03-01T07:22:23;-3.10;99.90
32728;DHT22;55292;51.844;19.246;2023-03-01T07:28:42;-2.90;99.90
32728;DHT22;55292;51.844;19.246;2023-03-01T08:03:03;-1.30;99.90
32728;DHT22;55292;51.844;19.246;2023-03-01T08:09:44;-1.10;99.90
32728;DHT22;55292;51.844;19.246;2023-03-01T08:14:49;-1.00;99.90
32728;DHT22;55292;51.844;19.246;2023-03-01T08:21:19;-0.70;99.90
32728;DHT22;55292;51.844;19.246;2023-03-01T08:28:48;-0.70;99.90
32728;DHT22;55292;51.844;19.246;2023-03-01T08:58:02;0.30;99.90
32728;DHT22;55292;51.844;19.246;2023-03-01T09:03:20;0.40;99.90
32728;DHT22;55292;51.844;19.246;2023-03-01T09:08:29;0.80;99.90
32728;DHT22;55292;51.844;19.246;2023-03-01T09:54:34;2.40;99.90
32728;DHT22;55292;51.844;19.246;2023-03-01T10:00:34;2.80;99.90
32728;DHT22;55292;51.844;19.246;2023-03-01T10:19:45;3.30;99.90
32728;DHT22;55292;51.844;19.246;2023-03-01T10:25:03;3.40;99.90
32728;DHT22;55292;51.844;19.246;2023-03-01T10:31:01;3.50;99.90
32728;DHT22;55292;51.844;19.246;2023-03-01T10:36:09;3.70;99.90
32728;DHT22;55292;51.844;19.246;2023-03-01T10:42:56;3.80;99.90
32728;DHT22;55292;51.844;19.246;2023-03-01T11:04:25;4.50;99.90
32728;DHT22;55292;51.844;19.246;2023-03-01T11:09:46;4.60;99.90
32728;DHT22;55292;51.844;19.246;2023-03-01T11:15:28;4.60;99.90
32728;DHT22;55292;51.844;19.246;2023-03-01T11:20:47;4.60;99.90
32728;DHT22;55292;51.844;19.246;2023-03-01T11:27:44;4.60;99.90
32728;DHT22;55292;51.844;19.246;2023-03-01T11:33:48;4.80;99.90
32728;DHT22;55292;51.844;19.246;2023-03-01T11:39:51;4.60;99.00
32728;DHT22;55292;51.844;19.246;2023-03-01T12:14:44;5.00;96.20
32728;DHT22;55292;51.844;19.246;2023-03-01T12:20:56;5.00;95.20
32728;DHT22;55292;51.844;19.246;2023-03-01T12:32:58;5.10;96.70
32728;DHT22;55292;51.844;19.246;2023-03-01T12:38:59;5.20;98.40
32728;DHT22;55292;51.844;19.246;2023-03-01T12:44:52;5.40;98.20
32728;DHT22;55292;51.844;19.246;2023-03-01T12:50:53;5.50;96.10
32728;DHT22;55292;51.844;19.246;2023-03-01T12:56:30;5.50;96.40
32728;DHT22;55292;51.844;19.246;2023-03-01T13:15:50;5.40;94.60
32728;DHT22;55292;51.844;19.246;2023-03-01T13:21:35;5.50;94.80
32728;DHT22;55292;51.844;19.246;2023-03-01T13:39:27;5.00;94.80
32728;DHT22;55292;51.844;19.246;2023-03-01T13:51:37;5.40;93.30
32728;DHT22;55292;51.844;19.246;2023-03-01T13:57:32;5.50;93.70
32728;DHT22;55292;51.844;19.246;2023-03-01T14:03:23;5.30;93.30
32728;DHT22;55292;51.844;19.246;2023-03-01T14:09:26;5.30;93.60
32728;DHT22;55292;51.844;19.246;2023-03-01T14:22:27;5.30;93.90
32728;DHT22;55292;51.844;19.246;2023-03-01T14:28:16;5.30;93.30
32728;DHT22;55292;51.844;19.246;2023-03-01T14:33:55;5.30;93.40
32728;DHT22;55292;51.844;19.246;2023-03-01T14:39:28;5.30;92.10
32728;DHT22;55292;51.844;19.246;2023-03-01T14:44:53;5.20;92.20
32728;DHT22;55292;51.844;19.246;2023-03-01T14:55:54;5.30;91.40
32728;DHT22;55292;51.844;19.246;2023-03-01T15:01:18;5.10;92.30
32728;DHT22;55292;51.844;19.246;2023-03-01T15:14:58;5.10;91.90
32728;DHT22;55292;51.844;19.246;2023-03-01T15:20:34;4.70;92.50
32728;DHT22;55292;51.844;19.246;2023-03-01T15:25:55;4.40;92.50
32728;DHT22;55292;51.844;19.246;2023-03-01T15:31:35;4.10;93.10
32728;DHT22;55292;51.844;19.246;2023-03-01T15:37:54;4.10;93.60
32728;DHT22;55292;51.844;19.246;2023-03-01T15:44:48;4.10;93.80
32728;DHT22;55292;51.844;19.246;2023-03-01T15:50:20;3.90;94.20
32728;DHT22;55292;51.844;19.246;2023-03-01T15:55:54;3.10;96.00
32728;DHT22;55292;51.844;19.246;2023-03-01T16:08:21;3.00;97.80
32728;DHT22;55292;51.844;19.246;2023-03-01T16:15:22;2.30;99.90
32728;DHT22;55292;51.844;19.246;2023-03-01T16:20:51;1.40;99.90
32728;DHT22;55292;51.844;19.246;2023-03-01T16:26:54;0.90;99.90
32728;DHT22;55292;51.844;19.246;2023-03-01T16:32:40;0.40;99.90
32728;DHT22;55292;51.844;19.246;2023-03-01T16:38:21;0.10;99.90
32728;DHT22;55292;51.844;19.246;2023-03-01T16:51:45;2.90;99.90
32728;DHT22;55292;51.844;19.246;2023-03-01T16:58:22;-0.80;99.90
32728;DHT22;55292;51.844;19.246;2023-03-01T17:04:04;-0.90;99.90
32728;DHT22;55292;51.844;19.246;2023-03-01T17:09:45;-1.00;99.90
32728;DHT22;55292;51.844;19.246;2023-03-01T17:15:42;-1.10;99.90
32728;DHT22;55292;51.844;19.246;2023-03-01T17:29:02;-1.00;99.90
32728;DHT22;55292;51.844;19.246;2023-03-01T17:34:31;-1.50;99.90
32728;DHT22;55292;51.844;19.246;2023-03-01T17:39:56;-1.50;99.90
32728;DHT22;55292;51.844;19.246;2023-03-01T17:45:16;-1.60;99.90
32728;DHT22;55292;51.844;19.246;2023-03-01T17:50:48;-1.90;99.90
32728;DHT22;55292;51.844;19.246;2023-03-01T17:56:25;-2.30;99.90
32728;DHT22;55292;51.844;19.246;2023-03-01T18:16:30;-2.70;99.90
32728;DHT22;55292;51.844;19.246;2023-03-01T18:30:22;-2.80;99.90
32728;DHT22;55292;51.844;19.246;2023-03-01T18:41:23;-2.80;99.90
32728;DHT22;55292;51.844;19.246;2023-03-01T18:47:22;-3.00;99.90
32728;DHT22;55292;51.844;19.246;2023-03-01T18:53:11;-3.00;99.90
32728;DHT22;55292;51.844;19.246;2023-03-01T18:58:29;-2.80;99.90
32728;DHT22;55292;51.844;19.246;2023-03-01T19:03:52;-2.80;99.90
32728;DHT22;55292;51.844;19.246;2023-03-01T19:16:41;-2.60;99.90
32728;DHT22;55292;51.844;19.246;2023-03-01T19:22:16;-2.60;99.90
32728;DHT22;55292;51.844;19.246;2023-03-01T19:27:47;-2.80;99.90
32728;DHT22;55292;51.844;19.246;2023-03-01T19:33:05;-2.90;99.90
32728;DHT22;55292;51.844;19.246;2023-03-01T19:39:35;-2.70;99.90
32728;DHT22;55292;51.844;19.246;2023-03-01T19:45:13;-3.00;99.90
32728;DHT22;55292;51.844;19.246;2023-03-01T19:50:31;-3.10;99.90
32728;DHT22;55292;51.844;19.246;2023-03-01T19:55:57;-3.30;99.90
32728;DHT22;55292;51.844;19.246;2023-03-01T20:09:16;-3.40;99.90
32728;DHT22;55292;51.844;19.246;2023-03-01T20:14:44;-3.60;99.90
32728;DHT22;55292;51.844;19.246;2023-03-01T20:20:01;-3.60;99.90
32728;DHT22;55292;51.844;19.246;2023-03-01T20:25:30;-3.50;99.90
32728;DHT22;55292;51.844;19.246;2023-03-01T20:31:25;-3.50;99.90
32728;DHT22;55292;51.844;19.246;2023-03-01T20:56:20;-3.40;99.90
32728;DHT22;55292;51.844;19.246;2023-03-01T21:02:25;-3.20;99.90
32728;DHT22;55292;51.844;19.246;2023-03-01T21:08:12;-3.30;99.90
32728;DHT22;55292;51.844;19.246;2023-03-01T21:21:47;-3.90;99.90
32728;DHT22;55292;51.844;19.246;2023-03-01T21:27:37;-3.80;99.90
32728;DHT22;55292;51.844;19.246;2023-03-01T21:33:08;-3.80;99.90
32728;DHT22;55292;51.844;19.246;2023-03-01T21:38:47;-3.70;99.90
32728;DHT22;55292;51.844;19.246;2023-03-01T21:44:34;-3.50;99.90
32728;DHT22;55292;51.844;19.246;2023-03-01T21:49:59;-3.30;99.90
32728;DHT22;55292;51.844;19.246;2023-03-01T21:55:34;-3.50;99.90
32728;DHT22;55292;51.844;19.246;2023-03-01T22:01:15;-3.80;99.90
32728;DHT22;55292;51.844;19.246;2023-03-01T22:06:58;-3.80;99.90
32728;DHT22;55292;51.844;19.246;2023-03-01T22:12:18;-3.70;99.90
32728;DHT22;55292;51.844;19.246;2023-03-01T22:18:01;-3.80;99.90
32728;DHT22;55292;51.844;19.246;2023-03-01T22:23:25;-3.90;99.90
32728;DHT22;55292;51.844;19.246;2023-03-01T22:29:07;-4.00;99.90
32728;DHT22;55292;51.844;19.246;2023-03-01T22:34:45;-3.90;99.90
32728;DHT22;55292;51.844;19.246;2023-03-01T22:40:36;-3.70;99.90
32728;DHT22;55292;51.844;19.246;2023-03-01T22:46:17;-3.80;99.90
32728;DHT22;55292;51.844;19.246;2023-03-01T22:51:44;-4.30;99.90
32728;DHT22;55292;51.844;19.246;2023-03-01T22:57:48;-3.90;99.90
32728;DHT22;55292;51.844;19.246;2023-03-01T23:03:27;-3.90;99.90
32728;DHT22;55292;51.844;19.246;2023-03-01T23:09:00;-3.90;99.90
32728;DHT22;55292;51.844;19.246;2023-03-01T23:14:18;-4.00;99.90
32728;DHT22;55292;51.844;19.246;2023-03-01T23:19:43;-4.00;99.90
32728;DHT22;55292;51.844;19.246;2023-03-01T23:24:52;-4.00;99.90
32728;DHT22;55292;51.844;19.246;2023-03-01T23:30:17;-4.20;99.90
32728;DHT22;55292;51.844;19.246;2023-03-01T23:35:58;-4.40;99.90
32728;DHT22;55292;51.844;19.246;2023-03-01T23:41:39;-4.40;99.90
32728;DHT22;55292;51.844;19.246;2023-03-01T23:47:05;-4.40;99.90
32728;DHT22;55292;51.844;19.246;2023-03-01T23:52:26;-4.30;99.90
32728;DHT22;55292;51.844;19.246;2023-03-01T23:58:01;-4.20;99.90
